Time;durP1;ratioP1;P1;durP2;ratioP2;P2;SDS_P1;SDS_P2;PMS_P1;PMS_P2;Temp;Humidity;BMP_temperature;BMP_pressure;BME280_temperature;BME280_humidity;BME280_pressure;Samples;Min_cycle;Max_cycle;Signal;HPM_P1;HPM_P2
2022/07/05 00:02:04;;;;;;;1.83;1.73;;;22.00;59.90;;;;;;5047240;28;20220;-70
2022/07/05 00:04:30;;;;;;;1.90;1.80;;;21.90;59.80;;;;;;5050259;28;20646;-69
2022/07/05 00:09:40;;;;;;;1.93;1.83;;;21.90;60.00;;;;;;5065999;28;20309;-70
2022/07/05 00:12:06;;;;;;;1.73;1.63;;;21.80;59.90;;;;;;5041249;28;20525;-70
2022/07/05 00:14:32;;;;;;;1.70;1.60;;;21.80;59.90;;;;;;5049721;28;20223;-70
2022/07/05 00:16:58;;;;;;;2.50;2.23;;;21.80;61.00;;;;;;5051122;28;20457;-70
2022/07/05 00:19:23;;;;;;;3.00;2.37;;;21.70;60.00;;;;;;5036402;28;20228;-70
2022/07/05 00:21:49;;;;;;;3.10;2.13;;;21.70;60.00;;;;;;5027031;28;20270;-70
2022/07/05 00:24:15;;;;;;;1.90;1.80;;;21.70;60.10;;;;;;5062831;28;20231;-70
2022/07/05 00:26:40;;;;;;;1.77;1.67;;;21.60;60.40;;;;;;5049146;28;20216;-70
2022/07/05 00:29:06;;;;;;;2.03;1.83;;;21.40;60.50;;;;;;5044744;28;20230;-70
2022/07/05 00:31:32;;;;;;;1.50;1.50;;;21.20;60.80;;;;;;5050571;28;20220;-70
2022/07/05 00:33:57;;;;;;;2.40;2.20;;;21.10;60.90;;;;;;5048215;28;20285;-69
2022/07/05 00:36:23;;;;;;;1.73;1.57;;;21.10;61.10;;;;;;5044914;28;20219;-70
2022/07/05 00:38:49;;;;;;;1.70;1.60;;;21.10;61.10;;;;;;5059200;28;20223;-69
2022/07/05 00:41:14;;;;;;;1.60;1.50;;;21.10;61.10;;;;;;5017493;28;20228;-69
2022/07/05 00:43:55;;;;;;;2.33;2.13;;;21.00;61.10;;;;;;5025229;28;20228;-69
2022/07/05 00:46:21;;;;;;;2.43;2.33;;;20.90;62.10;;;;;;5049256;28;20234;-69
2022/07/05 00:48:47;;;;;;;1.90;1.70;;;20.90;62.00;;;;;;5049840;28;20449;-70
2022/07/05 00:51:13;;;;;;;1.90;1.80;;;20.90;62.20;;;;;;5048814;28;20522;-69
2022/07/05 00:53:40;;;;;;;1.80;1.70;;;20.80;62.10;;;;;;5031426;28;20215;-70
2022/07/05 00:56:06;;;;;;;2.17;1.83;;;20.70;62.60;;;;;;5032949;28;20255;-70
2022/07/05 00:58:33;;;;;;;1.80;1.70;;;20.70;62.50;;;;;;5049142;28;21024;-69
2022/07/05 01:01:01;;;;;;;2.07;1.97;;;20.70;62.70;;;;;;5048681;28;20468;-69
2022/07/05 01:03:27;;;;;;;2.80;1.73;;;20.60;62.90;;;;;;5031900;28;20530;-70
2022/07/05 01:05:54;;;;;;;1.80;1.70;;;20.60;63.00;;;;;;5048858;28;20932;-69
2022/07/05 01:08:22;;;;;;;2.20;2.00;;;20.60;63.10;;;;;;5044719;28;20232;-70
2022/07/05 01:10:48;;;;;;;3.73;1.90;;;20.60;63.20;;;;;;5029198;28;20452;-70
2022/07/05 01:13:14;;;;;;;2.10;2.00;;;20.60;62.90;;;;;;5050721;28;20871;-69
2022/07/05 01:15:41;;;;;;;1.67;1.50;;;20.60;63.10;;;;;;5056886;28;20687;-70
2022/07/05 01:18:08;;;;;;;2.13;1.93;;;20.60;63.30;;;;;;5047929;28;20486;-69
2022/07/05 01:20:34;;;;;;;1.67;1.57;;;20.60;63.10;;;;;;5065158;28;20454;-69
2022/07/05 01:23:02;;;;;;;2.27;2.00;;;20.60;63.30;;;;;;5048872;28;20512;-70
2022/07/05 01:25:29;;;;;;;2.10;2.00;;;20.60;62.30;;;;;;5045926;28;20859;-70
2022/07/05 01:27:56;;;;;;;2.63;1.73;;;20.50;62.60;;;;;;5038082;28;20455;-70
2022/07/05 01:30:23;;;;;;;1.90;1.80;;;20.50;62.40;;;;;;5052083;28;20875;-70
2022/07/05 01:32:48;;;;;;;1.80;1.70;;;20.60;62.70;;;;;;5046647;28;20476;-69
2022/07/05 01:35:23;;;;;;;1.70;1.60;;;20.60;62.80;;;;;;5047185;28;20962;-69
2022/07/05 01:37:50;;;;;;;5.90;2.00;;;20.60;62.60;;;;;;5048342;28;20226;-69
2022/07/05 01:40:16;;;;;;;1.83;1.73;;;20.60;62.70;;;;;;5046653;28;20958;-70
2022/07/05 01:42:42;;;;;;;3.30;1.80;;;20.60;62.70;;;;;;5031966;28;20497;-70
2022/07/05 01:45:08;;;;;;;2.00;1.90;;;20.60;62.80;;;;;;5064906;28;20467;-69
2022/07/05 01:47:46;;;;;;;2.07;1.87;;;20.50;62.40;;;;;;5048234;28;20211;-70
2022/07/05 01:50:15;;;;;;;1.87;1.77;;;20.50;62.50;;;;;;5044912;28;20434;-69
2022/07/05 01:52:43;;;;;;;1.70;1.60;;;20.40;62.60;;;;;;5048234;28;20489;-69
2022/07/05 01:55:09;;;;;;;2.00;1.90;;;20.50;62.90;;;;;;5049004;28;20458;-70
2022/07/05 01:57:35;;;;;;;2.00;1.90;;;20.50;62.90;;;;;;5033878;28;20452;-69
2022/07/05 02:00:01;;;;;;;2.40;2.20;;;20.40;63.00;;;;;;5036184;28;20309;-69
2022/07/05 02:02:27;;;;;;;2.00;1.90;;;20.30;63.40;;;;;;5047480;28;20516;-69
2022/07/05 02:04:53;;;;;;;1.80;1.60;;;20.30;63.70;;;;;;5031142;28;20235;-70
2022/07/05 02:07:19;;;;;;;2.10;2.00;;;20.20;63.80;;;;;;5048362;28;20878;-70
2022/07/05 02:09:45;;;;;;;2.57;2.00;;;20.20;63.70;;;;;;5048538;28;20538;-70
2022/07/05 02:12:11;;;;;;;1.90;1.80;;;20.20;63.80;;;;;;5047371;28;20216;-69
2022/07/05 02:14:37;;;;;;;2.30;2.10;;;20.20;63.80;;;;;;5036717;28;20286;-70
2022/07/05 02:17:06;;;;;;;1.90;1.80;;;20.20;64.00;;;;;;5048587;28;20223;-69
2022/07/05 02:19:37;;;;;;;1.87;1.77;;;20.20;64.00;;;;;;5046400;28;20565;-70
2022/07/05 02:22:03;;;;;;;2.07;1.97;;;20.10;63.80;;;;;;5048445;28;20454;-69
2022/07/05 02:24:29;;;;;;;2.10;2.00;;;20.10;64.00;;;;;;5052575;28;20849;-69
2022/07/05 02:27:08;;;;;;;1.80;1.70;;;20.10;64.10;;;;;;5052520;28;20844;-69
2022/07/05 02:29:35;;;;;;;3.57;2.10;;;20.10;64.00;;;;;;5035986;28;20505;-69
2022/07/05 02:32:02;;;;;;;2.70;2.00;;;20.00;64.40;;;;;;5051737;28;20529;-70
2022/07/05 02:34:28;;;;;;;2.10;2.00;;;19.90;64.60;;;;;;5052672;28;20473;-69
2022/07/05 02:36:54;;;;;;;1.80;1.70;;;19.90;64.80;;;;;;5047731;28;20493;-69
2022/07/05 02:39:20;;;;;;;2.40;1.60;;;19.80;64.70;;;;;;5033509;28;20978;-70
2022/07/05 02:41:48;;;;;;;2.10;1.80;;;19.80;64.40;;;;;;5035039;28;20274;-69
2022/07/05 02:44:14;;;;;;;2.03;1.70;;;19.90;64.40;;;;;;5048262;28;20458;-70
2022/07/05 02:46:40;;;;;;;1.80;1.70;;;19.90;64.50;;;;;;5035262;28;20211;-70
2022/07/05 02:49:06;;;;;;;2.07;1.80;;;19.90;65.10;;;;;;5047904;28;20455;-69
2022/07/05 02:51:34;;;;;;;2.13;2.00;;;19.90;64.50;;;;;;5055611;28;20338;-69
2022/07/05 02:54:00;;;;;;;2.30;1.77;;;19.90;64.70;;;;;;5037325;28;20814;-69
2022/07/05 02:56:28;;;;;;;2.27;2.07;;;19.80;64.50;;;;;;5039629;28;20453;-68
2022/07/05 02:58:54;;;;;;;4.77;1.90;;;19.80;64.80;;;;;;5034249;28;20458;-70
2022/07/05 03:01:21;;;;;;;2.20;2.10;;;19.80;64.40;;;;;;5047816;28;20447;-69
2022/07/05 03:03:47;;;;;;;2.10;1.93;;;19.80;64.80;;;;;;5051534;28;20450;-70
2022/07/05 03:06:14;;;;;;;5.17;1.87;;;19.80;64.30;;;;;;5052100;28;20992;-69
2022/07/05 03:08:41;;;;;;;3.60;2.23;;;19.70;65.50;;;;;;5034923;28;20450;-69
2022/07/05 03:11:07;;;;;;;1.77;1.67;;;19.70;64.60;;;;;;5042638;28;20218;-70
2022/07/05 03:13:35;;;;;;;1.83;1.73;;;19.70;64.80;;;;;;5051177;28;20457;-69
2022/07/05 03:16:01;;;;;;;4.93;1.77;;;19.50;65.20;;;;;;5034674;28;20453;-70
2022/07/05 03:18:27;;;;;;;1.93;1.83;;;19.40;65.70;;;;;;5044673;28;21021;-69
2022/07/05 03:20:52;;;;;;;2.33;1.70;;;19.30;66.00;;;;;;5040141;28;20232;-69
2022/07/05 03:23:20;;;;;;;2.20;1.67;;;19.30;66.30;;;;;;5049093;28;20227;-69
2022/07/05 03:25:51;;;;;;;1.70;1.60;;;19.20;66.60;;;;;;5046100;28;20446;-69
2022/07/05 03:28:17;;;;;;;2.27;2.07;;;19.10;67.50;;;;;;5049264;28;20454;-69
2022/07/05 03:30:44;;;;;;;2.10;1.90;;;19.10;67.20;;;;;;5033988;28;20227;-69
2022/07/05 03:33:10;;;;;;;1.83;1.40;;;19.20;67.20;;;;;;5031073;28;20455;-69
2022/07/05 03:35:40;;;;;;;2.57;2.07;;;19.20;66.50;;;;;;5015328;28;20217;-69
2022/07/05 03:38:07;;;;;;;2.27;2.13;;;19.20;66.40;;;;;;5045058;28;20453;-69
2022/07/05 03:40:32;;;;;;;1.77;1.67;;;19.20;66.60;;;;;;5034340;28;20844;-69
2022/07/05 03:42:59;;;;;;;1.70;1.60;;;19.20;66.10;;;;;;5050367;28;20227;-69
2022/07/05 03:45:26;;;;;;;5.43;2.00;;;19.20;66.10;;;;;;5048880;28;20451;-68
2022/07/05 03:47:52;;;;;;;3.50;1.80;;;19.20;66.20;;;;;;5040995;28;20477;-69
2022/07/05 03:50:18;;;;;;;2.37;2.03;;;19.20;66.30;;;;;;5030051;28;20213;-69
2022/07/05 03:52:43;;;;;;;2.07;1.97;;;19.20;66.30;;;;;;5050797;28;20227;-70
2022/07/05 03:55:09;;;;;;;1.80;1.70;;;19.20;66.00;;;;;;5030173;28;20451;-69
2022/07/05 03:57:35;;;;;;;2.03;1.93;;;19.20;66.10;;;;;;5050003;28;20699;-69
2022/07/05 04:00:01;;;;;;;2.87;1.90;;;19.20;66.10;;;;;;5050041;28;20611;-70
2022/07/05 04:02:27;;;;;;;2.10;1.80;;;19.20;66.00;;;;;;5049045;28;20369;-69
2022/07/05 04:04:54;;;;;;;1.80;1.70;;;19.20;66.00;;;;;;5045859;28;20455;-69
2022/07/05 04:07:19;;;;;;;2.10;1.97;;;19.20;66.00;;;;;;5047534;28;20486;-69
2022/07/05 04:09:45;;;;;;;2.87;2.00;;;19.30;66.20;;;;;;5049867;28;20683;-69
2022/07/05 04:12:12;;;;;;;2.70;1.80;;;19.30;66.10;;;;;;5041490;28;20224;-69
2022/07/05 04:14:39;;;;;;;1.93;1.83;;;19.30;66.10;;;;;;5040771;28;20513;-69
2022/07/05 04:17:05;;;;;;;1.83;1.73;;;19.20;66.70;;;;;;5042383;28;20460;-69
2022/07/05 04:19:31;;;;;;;1.77;1.63;;;19.20;66.90;;;;;;5050188;28;20211;-72
2022/07/05 04:21:58;;;;;;;3.30;1.87;;;19.20;66.50;;;;;;5042810;28;20450;-69
2022/07/05 04:24:24;;;;;;;2.30;2.00;;;19.20;66.70;;;;;;5050788;28;20446;-69
2022/07/05 04:26:49;;;;;;;1.90;1.80;;;19.20;67.00;;;;;;5030934;28;20453;-69
2022/07/05 04:29:15;;;;;;;1.90;1.80;;;19.20;67.00;;;;;;5034421;28;20220;-69
2022/07/05 04:31:41;;;;;;;2.50;2.30;;;19.10;68.00;;;;;;5033608;28;20228;-69
2022/07/05 04:34:07;;;;;;;2.47;1.90;;;19.10;68.00;;;;;;5049475;28;20223;-69
2022/07/05 04:36:40;;;;;;;3.07;1.90;;;19.10;68.10;;;;;;5049966;28;20215;-69
2022/07/05 04:39:07;;;;;;;1.90;1.80;;;19.10;68.10;;;;;;5045628;28;20465;-69
2022/07/05 04:41:34;;;;;;;2.00;1.80;;;19.00;68.30;;;;;;5049435;28;20536;-69
2022/07/05 04:44:01;;;;;;;2.37;1.90;;;19.00;69.10;;;;;;5030249;28;20505;-69
2022/07/05 04:46:27;;;;;;;1.73;1.50;;;19.10;69.10;;;;;;5049925;28;20996;-69
2022/07/05 04:48:54;;;;;;;2.43;2.00;;;19.10;68.70;;;;;;5038138;28;20684;-69
2022/07/05 04:51:19;;;;;;;2.13;1.50;;;19.10;69.20;;;;;;5027472;28;20449;-69
2022/07/05 04:53:45;;;;;;;1.93;1.83;;;19.20;69.40;;;;;;5032567;28;20765;-69
2022/07/05 04:56:11;;;;;;;3.00;1.80;;;19.20;69.20;;;;;;5031827;28;20217;-69
2022/07/05 04:58:36;;;;;;;1.90;1.70;;;19.20;69.90;;;;;;5052255;28;20601;-70
2022/07/05 05:01:02;;;;;;;4.13;2.20;;;19.20;70.30;;;;;;5054873;28;20257;-69
2022/07/05 05:03:28;;;;;;;2.20;2.03;;;19.30;70.00;;;;;;5032688;28;20223;-69
2022/07/05 05:05:54;;;;;;;23.83;6.77;;;19.30;70.20;;;;;;5048489;28;20467;-69
2022/07/05 05:08:19;;;;;;;10.30;5.17;;;19.30;70.80;;;;;;5042227;28;20220;-69
2022/07/05 05:10:45;;;;;;;10.30;4.03;;;19.40;70.20;;;;;;5048853;28;20219;-69
2022/07/05 05:13:11;;;;;;;10.30;4.93;;;19.40;71.00;;;;;;5048591;28;20216;-70
2022/07/05 05:15:36;;;;;;;6.03;2.77;;;19.40;70.60;;;;;;5037894;28;20212;-69
2022/07/05 05:18:02;;;;;;;2.77;2.40;;;19.50;71.50;;;;;;5045818;28;20699;-70
2022/07/05 05:20:29;;;;;;;2.60;2.40;;;19.50;71.60;;;;;;5048042;28;20299;-70
2022/07/05 05:22:55;;;;;;;2.50;1.90;;;19.50;72.30;;;;;;5048758;28;20220;-69
2022/07/05 05:25:21;;;;;;;2.00;1.87;;;19.50;72.30;;;;;;5039702;28;20539;-70
2022/07/05 05:27:49;;;;;;;4.00;2.27;;;19.50;71.70;;;;;;5036361;28;20228;-70
2022/07/05 05:30:19;;;;;;;5.03;1.97;;;19.50;72.20;;;;;;5021461;28;20346;-70
2022/07/05 05:32:45;;;;;;;2.40;2.20;;;19.60;71.70;;;;;;5036890;28;20450;-70
2022/07/05 05:35:10;;;;;;;3.20;2.20;;;19.60;72.20;;;;;;5046225;28;20435;-70
2022/07/05 05:37:54;;;;;;;2.17;2.07;;;19.60;71.70;;;;;;5044466;28;20258;-70
2022/07/05 05:40:21;;;;;;;1.83;1.73;;;19.60;72.50;;;;;;5046367;28;20238;-70
2022/07/05 05:42:47;;;;;;;3.10;2.40;;;19.60;72.00;;;;;;5045390;28;20559;-68
2022/07/05 05:45:13;;;;;;;4.30;2.83;;;19.70;72.80;;;;;;5047889;28;20509;-70
2022/07/05 05:47:47;;;;;;;3.53;2.77;;;19.70;72.70;;;;;;5049081;28;20462;-70
2022/07/05 05:50:13;;;;;;;2.70;1.97;;;19.80;72.80;;;;;;5049664;28;20984;-70
2022/07/05 05:52:39;;;;;;;2.30;2.10;;;19.90;73.50;;;;;;5049175;28;20970;-69
2022/07/05 05:55:06;;;;;;;2.10;2.00;;;19.90;73.80;;;;;;5041462;28;20475;-69
2022/07/05 05:57:33;;;;;;;2.90;2.13;;;20.00;73.80;;;;;;5058732;28;20222;-70
2022/07/05 05:59:58;;;;;;;2.10;1.90;;;20.00;73.70;;;;;;5043511;28;20477;-70
2022/07/05 06:02:24;;;;;;;2.40;2.20;;;20.00;73.20;;;;;;5055235;28;20451;-69
2022/07/05 06:04:50;;;;;;;3.03;2.83;;;20.00;73.30;;;;;;5039505;28;20256;-70
2022/07/05 06:07:15;;;;;;;2.73;2.40;;;20.10;74.20;;;;;;5040430;28;20228;-69
2022/07/05 06:09:41;;;;;;;2.60;2.03;;;20.10;74.30;;;;;;5048061;28;20212;-70
2022/07/05 06:12:07;;;;;;;5.23;2.87;;;20.10;74.00;;;;;;5045522;28;20215;-69
2022/07/05 06:14:33;;;;;;;2.57;2.40;;;20.20;75.20;;;;;;5046984;28;20227;-69
2022/07/05 06:16:58;;;;;;;2.80;2.43;;;20.20;74.50;;;;;;5023865;28;20459;-69
2022/07/05 06:19:24;;;;;;;3.00;2.00;;;20.30;75.40;;;;;;5048966;28;20224;-69
2022/07/05 06:21:50;;;;;;;5.00;2.70;;;20.30;75.60;;;;;;5030344;28;20755;-69
2022/07/05 06:24:15;;;;;;;2.20;2.10;;;20.40;75.10;;;;;;5044035;28;20571;-70
2022/07/05 06:26:41;;;;;;;3.60;2.50;;;20.50;75.30;;;;;;5038927;28;20302;-70
2022/07/05 06:29:06;;;;;;;2.10;1.77;;;20.50;75.10;;;;;;5044603;28;20204;-70
2022/07/05 06:31:32;;;;;;;2.27;2.13;;;20.60;74.90;;;;;;5045010;28;20211;-70
2022/07/05 06:33:58;;;;;;;4.93;2.77;;;20.60;75.20;;;;;;5044904;28;20369;-70
2022/07/05 06:36:23;;;;;;;2.57;2.37;;;20.70;75.90;;;;;;5040744;28;20235;-69
2022/07/05 06:38:49;;;;;;;4.40;2.27;;;20.80;75.40;;;;;;5043044;28;20236;-69
2022/07/05 06:41:15;;;;;;;2.33;1.80;;;20.80;75.50;;;;;;5046903;28;20267;-69
2022/07/05 06:43:40;;;;;;;2.63;2.43;;;20.90;75.50;;;;;;5030373;28;20212;-70
2022/07/05 06:46:14;;;;;;;2.30;2.10;;;21.00;75.40;;;;;;5039543;28;20219;-70
2022/07/05 06:48:40;;;;;;;4.20;2.20;;;21.10;75.80;;;;;;5047111;28;20450;-70
2022/07/05 06:51:06;;;;;;;3.43;2.37;;;21.10;75.20;;;;;;5043444;28;20279;-69
2022/07/05 06:53:31;;;;;;;4.27;2.50;;;21.20;75.50;;;;;;5043249;28;20215;-70
2022/07/05 06:55:57;;;;;;;2.43;2.23;;;21.30;75.30;;;;;;5052927;28;20265;-70
2022/07/05 06:58:23;;;;;;;2.00;1.87;;;21.30;75.10;;;;;;5038969;28;20223;-70
2022/07/05 07:00:49;;;;;;;3.30;2.20;;;21.30;75.30;;;;;;5046326;28;20299;-69
2022/07/05 07:03:15;;;;;;;3.90;3.60;;;21.40;75.90;;;;;;5037126;28;20522;-69
2022/07/05 07:05:41;;;;;;;5.03;2.23;;;21.50;75.20;;;;;;5046597;28;20273;-70
2022/07/05 07:10:51;;;;;;;2.10;2.00;;;21.60;74.20;;;;;;5058737;28;20687;-69
2022/07/05 07:13:19;;;;;;;3.07;2.10;;;21.60;74.10;;;;;;5046534;28;20511;-70
2022/07/05 07:15:46;;;;;;;2.90;1.80;;;21.70;74.20;;;;;;5048955;28;20224;-69
2022/07/05 07:18:12;;;;;;;2.10;1.90;;;21.80;73.90;;;;;;5046255;28;20452;-70
2022/07/05 07:20:38;;;;;;;3.00;2.13;;;21.80;73.30;;;;;;5059785;28;20466;-70
2022/07/05 07:23:03;;;;;;;3.07;2.30;;;21.90;73.10;;;;;;5047032;28;20454;-70
2022/07/05 07:25:29;;;;;;;2.40;1.70;;;22.00;72.80;;;;;;5042339;28;20224;-70
2022/07/05 07:27:55;;;;;;;2.37;2.27;;;22.00;72.20;;;;;;5040916;28;20258;-68
2022/07/05 07:30:26;;;;;;;2.03;1.93;;;22.10;72.80;;;;;;5038558;28;20231;-70
2022/07/05 07:32:52;;;;;;;2.50;2.27;;;22.20;73.30;;;;;;5031326;28;20451;-70
2022/07/05 07:35:18;;;;;;;2.60;2.30;;;22.30;73.00;;;;;;5021885;28;20474;-70
2022/07/05 07:37:44;;;;;;;4.93;2.80;;;22.30;73.00;;;;;;5040583;28;21005;-69
2022/07/05 07:40:10;;;;;;;2.33;2.20;;;22.40;73.30;;;;;;5047154;28;20310;-70
2022/07/05 07:42:36;;;;;;;4.93;2.50;;;22.50;72.80;;;;;;5040759;28;20549;-71
2022/07/05 07:45:03;;;;;;;2.20;2.07;;;22.60;73.00;;;;;;5021748;28;20269;-70
2022/07/05 07:47:30;;;;;;;2.47;2.20;;;22.60;72.90;;;;;;5045386;28;20454;-70
2022/07/05 07:49:55;;;;;;;2.43;2.23;;;22.70;72.40;;;;;;5047413;28;20852;-70
2022/07/05 07:52:21;;;;;;;2.63;2.27;;;22.70;71.40;;;;;;5049387;28;21000;-70
2022/07/05 07:54:47;;;;;;;2.40;2.20;;;22.80;72.50;;;;;;5024262;28;20216;-70
2022/07/05 07:57:12;;;;;;;2.23;2.03;;;22.90;72.40;;;;;;5042008;28;20252;-69
2022/07/05 07:59:38;;;;;;;2.10;2.00;;;22.90;72.20;;;;;;5047503;28;20709;-70
2022/07/05 08:02:04;;;;;;;3.03;2.17;;;23.00;73.00;;;;;;5042441;28;20223;-69
2022/07/05 08:04:30;;;;;;;2.37;2.00;;;23.10;72.30;;;;;;5045670;28;20223;-70
2022/07/05 08:06:55;;;;;;;2.87;2.10;;;23.10;71.80;;;;;;5034386;28;20223;-69
2022/07/05 08:09:21;;;;;;;3.03;2.60;;;23.20;71.80;;;;;;5043892;28;20219;-69
2022/07/05 08:11:47;;;;;;;2.03;1.67;;;23.20;71.00;;;;;;5037136;28;20676;-70
2022/07/05 08:14:14;;;;;;;3.97;1.77;;;23.30;70.20;;;;;;5043438;28;20731;-70
2022/07/05 08:16:40;;;;;;;3.10;1.93;;;23.40;70.60;;;;;;5044556;28;20711;-69
2022/07/05 08:21:50;;;;;;;1.97;1.73;;;23.50;68.90;;;;;;5049114;28;20211;-69
2022/07/05 08:24:15;;;;;;;4.30;1.60;;;23.60;68.70;;;;;;5027841;28;20553;-70
2022/07/05 08:26:41;;;;;;;4.60;1.80;;;23.70;68.90;;;;;;5047157;28;20215;-70
2022/07/05 08:29:10;;;;;;;1.80;1.70;;;23.80;68.20;;;;;;5040750;28;20211;-69
2022/07/05 08:31:40;;;;;;;2.57;1.80;;;23.80;68.20;;;;;;5040325;28;20465;-69
2022/07/05 08:34:07;;;;;;;2.43;2.33;;;23.90;69.20;;;;;;5027580;28;20484;-70
2022/07/05 08:36:32;;;;;;;2.20;2.00;;;24.10;69.40;;;;;;5040207;28;20445;-69
2022/07/05 08:38:58;;;;;;;2.00;1.90;;;24.20;69.10;;;;;;5034471;28;20490;-70
2022/07/05 08:41:24;;;;;;;2.30;2.10;;;24.20;68.50;;;;;;5031616;28;20236;-70
2022/07/05 08:43:53;;;;;;;2.30;1.80;;;24.30;69.20;;;;;;5042587;28;20760;-69
2022/07/05 08:46:19;;;;;;;2.23;1.97;;;24.40;68.80;;;;;;5038102;28;20445;-70
2022/07/05 08:48:50;;;;;;;2.07;1.93;;;24.50;68.30;;;;;;5029987;28;20903;-70
2022/07/05 08:51:23;;;;;;;2.17;1.87;;;24.60;67.00;;;;;;5045775;28;20949;-69
2022/07/05 08:53:53;;;;;;;2.90;1.83;;;24.70;66.60;;;;;;5053055;28;20488;-70
2022/07/05 08:56:19;;;;;;;1.70;1.60;;;24.70;65.10;;;;;;5054806;28;21043;-71
2022/07/05 08:58:45;;;;;;;1.70;1.60;;;24.80;65.50;;;;;;5049869;28;20505;-70
2022/07/05 09:01:13;;;;;;;1.80;1.70;;;24.90;63.70;;;;;;5040482;28;20482;-69
2022/07/05 09:04:00;;;;;;;2.60;1.97;;;25.10;64.10;;;;;;5052981;28;20213;-69
2022/07/05 09:06:28;;;;;;;2.23;1.90;;;25.10;63.00;;;;;;5031620;28;20469;-69
2022/07/05 09:08:58;;;;;;;1.63;1.53;;;25.10;63.90;;;;;;5038972;28;20457;-70
2022/07/05 09:11:33;;;;;;;2.03;1.93;;;25.30;63.20;;;;;;5061223;28;20457;-70
2022/07/05 09:13:58;;;;;;;3.17;2.30;;;25.30;62.80;;;;;;5030171;28;20453;-70
2022/07/05 09:16:24;;;;;;;3.00;1.90;;;25.30;62.50;;;;;;5039896;28;20474;-70
2022/07/05 09:18:53;;;;;;;2.10;2.00;;;25.40;63.30;;;;;;5045166;28;20231;-70
2022/07/05 09:21:24;;;;;;;2.07;1.90;;;25.40;63.50;;;;;;5046608;28;20223;-69
2022/07/05 09:23:57;;;;;;;3.00;2.70;;;25.50;63.90;;;;;;5042787;28;20520;-70
2022/07/05 09:26:43;;;;;;;2.43;2.10;;;25.60;63.60;;;;;;5028291;28;20453;-70
2022/07/05 09:29:17;;;;;;;3.00;2.47;;;25.70;63.50;;;;;;5040139;28;20995;-69
2022/07/05 09:31:46;;;;;;;1.73;1.63;;;25.60;62.60;;;;;;5037668;28;20461;-70
2022/07/05 09:34:12;;;;;;;5.70;2.37;;;25.60;62.50;;;;;;5037295;28;20460;-70
2022/07/05 09:36:48;;;;;;;2.30;2.17;;;25.70;62.70;;;;;;5048144;28;20450;-69
2022/07/05 09:39:14;;;;;;;4.93;2.20;;;25.80;63.20;;;;;;5046020;28;20549;-70
2022/07/05 09:41:39;;;;;;;2.20;2.00;;;25.90;63.30;;;;;;5036025;28;20546;-69
2022/07/05 09:44:05;;;;;;;2.53;2.10;;;26.10;63.50;;;;;;5037790;28;20220;-70
2022/07/05 09:46:33;;;;;;;2.70;1.70;;;26.20;63.80;;;;;;5038013;28;20251;-70
2022/07/05 09:48:59;;;;;;;2.90;1.80;;;26.30;62.70;;;;;;5038816;28;20216;-70
2022/07/05 09:51:25;;;;;;;1.90;1.70;;;26.30;62.20;;;;;;5045965;28;20458;-71
2022/07/05 09:53:52;;;;;;;2.30;2.10;;;26.40;61.90;;;;;;5047113;28;20806;-69
2022/07/05 09:56:18;;;;;;;2.30;1.93;;;26.40;61.70;;;;;;5032380;28;20585;-70
2022/07/05 09:58:45;;;;;;;1.97;1.77;;;26.40;60.30;;;;;;5046363;28;20496;-70
2022/07/05 10:01:27;;;;;;;1.90;1.80;;;26.50;60.10;;;;;;5031684;28;20432;-70
2022/07/05 10:03:54;;;;;;;1.90;1.80;;;26.50;59.70;;;;;;5049815;28;20224;-69
2022/07/05 10:06:22;;;;;;;2.43;2.10;;;26.50;59.10;;;;;;5052717;28;20438;-70
2022/07/05 10:08:49;;;;;;;3.40;1.63;;;26.50;59.10;;;;;;5050634;28;20455;-70
2022/07/05 10:11:18;;;;;;;2.40;2.10;;;26.60;59.00;;;;;;5044875;28;20215;-70
2022/07/05 10:13:48;;;;;;;2.77;2.00;;;26.70;58.70;;;;;;5039381;28;20807;-70
2022/07/05 10:16:16;;;;;;;2.20;2.00;;;26.80;59.10;;;;;;5049646;28;20446;-70
2022/07/05 10:18:42;;;;;;;1.90;1.80;;;27.00;59.10;;;;;;5043413;28;20221;-70
2022/07/05 10:21:13;;;;;;;2.07;1.90;;;27.10;59.00;;;;;;5049245;28;20319;-70
2022/07/05 10:23:42;;;;;;;1.90;1.80;;;27.20;58.80;;;;;;5052114;28;20803;-70
2022/07/05 10:26:09;;;;;;;2.43;1.80;;;27.30;58.40;;;;;;5044424;28;20466;-70
2022/07/05 10:28:35;;;;;;;2.20;1.70;;;27.30;58.20;;;;;;5043369;28;20289;-69
2022/07/05 10:31:02;;;;;;;1.77;1.67;;;27.40;58.00;;;;;;5046501;28;20317;-70
2022/07/05 10:33:28;;;;;;;1.83;1.73;;;27.50;57.50;;;;;;5043288;28;20213;-70
2022/07/05 10:35:55;;;;;;;3.30;2.10;;;27.30;57.20;;;;;;5035496;28;20220;-70
2022/07/05 10:38:21;;;;;;;1.93;1.77;;;27.20;57.20;;;;;;5025176;28;21025;-70
2022/07/05 10:40:51;;;;;;;2.67;1.90;;;27.20;57.20;;;;;;5032258;28;20249;-70
2022/07/05 10:43:17;;;;;;;4.07;1.80;;;27.20;56.90;;;;;;5038588;28;20460;-70
2022/07/05 10:45:50;;;;;;;1.40;1.30;;;27.40;56.60;;;;;;5062933;28;20450;-70
2022/07/05 10:48:17;;;;;;;1.77;1.67;;;27.50;56.30;;;;;;5048563;28;20221;-70
2022/07/05 10:51:15;;;;;;;2.00;1.80;;;27.50;56.30;;;;;;5050598;28;20450;-69
2022/07/05 10:53:40;;;;;;;1.73;1.63;;;27.60;56.00;;;;;;5034381;28;20210;-70
2022/07/05 10:56:06;;;;;;;1.73;1.63;;;27.60;55.90;;;;;;5043243;28;20222;-70
2022/07/05 10:58:38;;;;;;;2.07;1.90;;;27.60;56.40;;;;;;5044739;28;20312;-71
2022/07/05 11:01:19;;;;;;;2.15;1.80;;;27.70;55.90;;;;;;5039167;28;20412;-70
2022/07/05 11:03:48;;;;;;;1.83;1.73;;;27.90;55.90;;;;;;5047641;28;20272;-70
2022/07/05 11:06:31;;;;;;;2.70;2.50;;;28.10;55.50;;;;;;5043480;28;20235;-70
2022/07/05 11:08:59;;;;;;;2.43;2.23;;;28.00;56.10;;;;;;5059621;28;20301;-70
2022/07/05 11:11:52;;;;;;;2.10;2.00;;;27.80;56.30;;;;;;5034921;28;20282;-70
2022/07/05 11:14:21;;;;;;;2.70;2.42;;;27.70;56.30;;;;;;5025663;28;20222;-71
2022/07/05 11:17:15;;;;;;;2.30;2.10;;;27.70;56.50;;;;;;5050022;28;20213;-70
2022/07/05 11:20:06;;;;;;;4.90;2.20;;;27.80;56.70;;;;;;5033646;28;20788;-70
2022/07/05 11:22:33;;;;;;;3.47;2.92;;;27.90;56.70;;;;;;5047796;28;20219;-71
2022/07/05 11:25:01;;;;;;;2.75;2.35;;;28.10;56.90;;;;;;5047864;28;20261;-70
2022/07/05 11:27:27;;;;;;;2.50;2.30;;;28.10;56.30;;;;;;5046397;28;20704;-70
2022/07/05 11:29:56;;;;;;;2.53;2.30;;;28.10;56.40;;;;;;5042842;28;20307;-70
2022/07/05 11:32:30;;;;;;;2.47;2.30;;;27.90;55.80;;;;;;5047556;28;20297;-70
2022/07/05 11:35:17;;;;;;;2.58;2.22;;;27.90;55.80;;;;;;5049445;28;20691;-71
2022/07/05 11:38:04;;;;;;;2.10;2.00;;;27.80;55.30;;;;;;5063899;28;20586;-70
2022/07/05 11:40:31;;;;;;;1.98;1.88;;;27.90;55.60;;;;;;5026615;28;20274;-70
2022/07/05 11:42:57;;;;;;;2.63;1.97;;;28.00;55.40;;;;;;5047969;28;20224;-70
2022/07/05 11:45:24;;;;;;;5.07;1.77;;;28.10;55.40;;;;;;5041260;28;20626;-70
2022/07/05 11:47:54;;;;;;;2.20;1.97;;;27.90;55.30;;;;;;5041798;28;20650;-70
2022/07/05 11:50:26;;;;;;;2.00;1.90;;;27.80;55.40;;;;;;5037476;28;20316;-70
2022/07/05 11:52:51;;;;;;;2.10;2.00;;;27.40;54.80;;;;;;5044538;28;20934;-70
2022/07/05 11:55:18;;;;;;;3.33;1.77;;;27.50;54.70;;;;;;5043481;28;20495;-70
2022/07/05 11:57:51;;;;;;;2.33;2.13;;;27.60;55.10;;;;;;5039009;28;20587;-70
2022/07/05 12:00:34;;;;;;;2.03;1.90;;;27.70;55.20;;;;;;5047872;28;20237;-70
2022/07/05 12:03:00;;;;;;;3.05;2.10;;;27.60;54.80;;;;;;5047782;28;20229;-70
2022/07/05 12:05:32;;;;;;;2.45;2.20;;;27.70;55.20;;;;;;5048476;28;20588;-70
2022/07/05 12:07:59;;;;;;;2.10;2.00;;;27.80;55.20;;;;;;5029299;28;20272;-70
2022/07/05 12:13:09;;;;;;;1.80;1.70;;;27.50;55.00;;;;;;5041778;28;20218;-70
2022/07/05 12:15:39;;;;;;;1.90;1.80;;;27.60;55.60;;;;;;5045451;28;20250;-70
2022/07/05 12:18:06;;;;;;;1.73;1.60;;;27.90;54.90;;;;;;5040975;28;20717;-70
2022/07/05 12:20:33;;;;;;;1.60;1.50;;;28.20;55.40;;;;;;5047094;28;20380;-70
2022/07/05 12:23:00;;;;;;;2.35;1.92;;;28.40;55.10;;;;;;5036031;28;20231;-70
2022/07/05 12:25:27;;;;;;;1.98;1.83;;;28.70;54.30;;;;;;5023739;28;20236;-70
2022/07/05 12:27:55;;;;;;;2.00;1.58;;;28.80;54.30;;;;;;5046836;28;20304;-70
2022/07/05 12:30:21;;;;;;;1.33;1.33;;;29.00;54.10;;;;;;5037446;28;20825;-70
2022/07/05 12:32:56;;;;;;;1.70;1.60;;;29.10;53.60;;;;;;5044337;28;20232;-70
2022/07/05 12:35:42;;;;;;;1.30;1.30;;;29.20;54.10;;;;;;5032218;28;20235;-70
2022/07/05 12:38:18;;;;;;;1.77;1.67;;;29.10;53.50;;;;;;5035516;28;20240;-70
2022/07/05 12:40:59;;;;;;;1.50;1.40;;;29.30;53.50;;;;;;5045913;28;20220;-70
2022/07/05 12:43:25;;;;;;;1.60;1.50;;;29.40;53.40;;;;;;5049465;28;20222;-70
2022/07/05 12:46:05;;;;;;;1.70;1.60;;;29.50;52.60;;;;;;5044899;28;20643;-70
2022/07/05 12:48:34;;;;;;;1.58;1.45;;;29.60;52.20;;;;;;5045693;28;20221;-71
2022/07/05 12:51:01;;;;;;;1.55;1.45;;;29.60;52.20;;;;;;5042236;28;20217;-70
2022/07/05 12:59:04;;;;;;;1.50;1.40;;;30.10;51.10;;;;;;5046925;28;20234;-70
2022/07/05 13:01:38;;;;;;;1.50;1.40;;;29.90;51.40;;;;;;5043880;28;20241;-70
2022/07/05 13:04:11;;;;;;;1.70;1.60;;;29.90;51.30;;;;;;5041109;28;20218;-70
2022/07/05 13:06:46;;;;;;;1.30;1.30;;;30.00;51.10;;;;;;5044680;28;20214;-70